Pagina principale
METAR-TAF:

METAR-TAF

Aeroporti :

Tongatapu, Tonga

latitudine: 21-14S, longitudine: 175-09W, altezza: 38 m

Osservazione

Il bollettino è stato emesso 28 minuti fa, alle 05:00 UTC
Vento calmo
Temperature 30°C
Umidità 70%
Pressione 1008 hPa
Visibilità 10 km o più
Poco nuvoloso ad un'altezza di 2000 ft, Cumulo congesto.

METAR: NFTF 240500Z 00000KT 9999 FEW020TCU 30/24 Q1008 RMK FU TO NW OF AERODROME

Ora: 18:28 (05:28 UTC)

Previsione

Il bollettino è stato emesso 6 ore e 8 minuti fa, alle 23:20 UTC
Previsione valida dal 24 alle 00 UTC al 24 alle 24 UTC
Vento 9 kt da est/sud-est
Visibilità 10 km o più
Poco nuvoloso ad un'altezza di 1000 ft
Nubi sparse ad un'altezza di 1700 ft
Probabilità 30% :
Temporaneamente
dal 24 alle 09 UTC al 24 alle 18 UTC
Visibilità: 6000 m
Nuvoloso ad un'altezza di 1500 ft
rovesci di pioggia

TAF: NFTF 232320Z 2400/2424 12009KT 9999 FEW010 SCT017 PROB30 TEMPO 2409/2418 6000 SHRA BKN015

Osservazioni e previsioni meteorologiche di più di 4000 aeroporti (messaggi METAR e TAF).

Le stazioni disponibili sono rappresentate dai dischi gialli e rossi sulla carta.

Puntare il mouse per vedere il nome della stazione.

Clicca sopra per visualizzare le osservazioni e previsioni meteorologiche.

Per cambiare la mappa : fare clic sui pulsanti verdi con una croce nera per ingrandire, il pulsante verde con un trattino per diminuire, o sulla freccia verde per le mappe adiacenti.


METAR-TAF: